Time;durP1;ratioP1;P1;durP2;ratioP2;P2;SDS_P1;SDS_P2;PMS_P1;PMS_P2;Temp;Humidity;BMP_temperature;BMP_pressure;BME280_temperature;BME280_humidity;BME280_pressure;Samples;Min_cycle;Max_cycle;Signal;HPM_P1;HPM_P2
2023/12/21 00:02:18;;;;;;;11.98;9.13;;;8.80;99.90;;;;;;5079119;28;20134;-89
2023/12/21 00:04:44;;;;;;;17.45;11.30;;;8.80;99.90;;;;;;5062694;28;20100;-88
2023/12/21 00:07:10;;;;;;;11.73;8.77;;;8.80;99.90;;;;;;5029155;28;20020;-88
2023/12/21 00:09:35;;;;;;;8.75;7.95;;;8.80;99.90;;;;;;5079519;28;20021;-87
2023/12/21 00:12:02;;;;;;;13.15;9.23;;;8.80;99.90;;;;;;5062242;28;20302;-88
2023/12/21 00:14:30;;;;;;;10.20;8.82;;;8.80;99.90;;;;;;5061681;28;20079;-88
2023/12/21 00:16:56;;;;;;;10.77;7.88;;;8.90;99.90;;;;;;5028624;28;20028;-88
2023/12/21 00:19:22;;;;;;;13.32;9.57;;;8.90;99.90;;;;;;5045908;28;20021;-87
2023/12/21 00:21:48;;;;;;;8.82;6.97;;;8.80;99.90;;;;;;5062268;28;20031;-88
2023/12/21 00:24:14;;;;;;;17.67;7.72;;;8.80;99.90;;;;;;5045303;28;20328;-88
2023/12/21 00:26:40;;;;;;;9.90;7.63;;;8.90;99.90;;;;;;5062389;28;20071;-88
2023/12/21 00:29:06;;;;;;;7.88;7.13;;;8.80;99.90;;;;;;5045751;28;20024;-88
2023/12/21 00:31:32;;;;;;;14.82;6.30;;;8.90;99.90;;;;;;5041126;28;20025;-87
2023/12/21 00:33:58;;;;;;;14.65;7.80;;;8.80;99.90;;;;;;5055619;28;20224;-89
2023/12/21 00:36:24;;;;;;;11.55;6.80;;;8.80;99.90;;;;;;5045263;28;20017;-87
2023/12/21 00:38:50;;;;;;;10.65;6.80;;;8.90;99.90;;;;;;5045031;28;20024;-89
2023/12/21 00:41:16;;;;;;;12.18;7.88;;;8.90;99.90;;;;;;5062490;28;20066;-89
2023/12/21 00:43:42;;;;;;;11.02;6.72;;;8.90;99.90;;;;;;5061039;28;20021;-89
2023/12/21 00:46:07;;;;;;;10.65;5.93;;;8.90;99.90;;;;;;5075943;28;20334;-88
2023/12/21 00:48:33;;;;;;;8.45;7.15;;;8.90;99.90;;;;;;5061683;28;20021;-87
2023/12/21 00:50:59;;;;;;;8.98;7.70;;;8.90;99.90;;;;;;5078385;28;20096;-88
2023/12/21 00:53:25;;;;;;;13.27;8.90;;;8.80;99.90;;;;;;5060743;28;20340;-90
2023/12/21 00:55:51;;;;;;;10.07;8.65;;;8.80;99.90;;;;;;5041756;28;20017;-88
2023/12/21 00:58:16;;;;;;;7.93;7.10;;;8.90;99.90;;;;;;5025250;28;20026;-88
2023/12/21 01:00:42;;;;;;;15.65;7.65;;;8.80;99.90;;;;;;5056643;28;20025;-87
2023/12/21 01:03:08;;;;;;;14.90;7.78;;;8.90;99.90;;;;;;5041819;28;20026;-87
2023/12/21 01:05:34;;;;;;;10.63;7.55;;;8.80;99.90;;;;;;5058773;28;20092;-90
2023/12/21 01:08:00;;;;;;;10.07;7.53;;;8.80;99.90;;;;;;5062081;28;20070;-88
2023/12/21 01:10:26;;;;;;;10.73;7.18;;;;;;;;;;5063508;28;20041;-88
2023/12/21 01:12:52;;;;;;;9.60;7.47;;;8.70;99.90;;;;;;5046971;28;20033;-87
2023/12/21 01:15:18;;;;;;;14.90;7.75;;;8.80;99.90;;;;;;5027498;28;20097;-88
2023/12/21 01:17:45;;;;;;;8.68;7.68;;;;;;;;;;5055526;28;20202;-88
2023/12/21 01:20:11;;;;;;;10.27;8.80;;;8.80;99.90;;;;;;5029388;28;20144;-88
2023/12/21 01:22:37;;;;;;;12.40;7.45;;;8.80;99.90;;;;;;5045479;28;20025;-88
2023/12/21 01:25:03;;;;;;;9.27;8.25;;;8.80;99.90;;;;;;5060135;28;20067;-88
2023/12/21 01:27:29;;;;;;;8.57;5.75;;;8.80;99.90;;;;;;5065471;28;20017;-87
2023/12/21 01:29:55;;;;;;;8.05;6.45;;;8.80;99.90;;;;;;5065733;28;20044;-87
2023/12/21 01:32:21;;;;;;;9.85;7.03;;;8.80;99.90;;;;;;5072900;28;20017;-88
2023/12/21 01:34:46;;;;;;;13.35;8.38;;;8.90;99.90;;;;;;5089428;28;20059;-88
2023/12/21 01:37:12;;;;;;;14.13;7.88;;;8.80;99.90;;;;;;5064974;28;20013;-87
2023/12/21 01:39:38;;;;;;;11.48;5.40;;;8.80;99.90;;;;;;5081705;28;20017;-88
2023/12/21 01:42:04;;;;;;;6.97;6.28;;;8.80;99.90;;;;;;5052323;28;20026;-89
2023/12/21 01:44:30;;;;;;;10.30;6.32;;;8.80;99.90;;;;;;5061914;28;20025;-87
2023/12/21 01:46:56;;;;;;;11.00;4.82;;;8.70;99.90;;;;;;5048500;28;20032;-88
2023/12/21 01:49:23;;;;;;;6.80;5.20;;;8.80;99.90;;;;;;5065667;28;20017;-88
2023/12/21 01:51:50;;;;;;;8.23;6.63;;;8.80;99.90;;;;;;5064392;28;20020;-87
2023/12/21 01:54:17;;;;;;;8.13;6.47;;;8.80;99.90;;;;;;5080415;28;20036;-88
2023/12/21 01:56:44;;;;;;;11.40;7.03;;;8.80;99.90;;;;;;5061226;28;20207;-87
2023/12/21 01:59:10;;;;;;;6.55;6.00;;;8.80;99.90;;;;;;5061533;28;20028;-87
2023/12/21 02:01:38;;;;;;;13.57;6.40;;;8.80;99.90;;;;;;5061720;28;20013;-87
2023/12/21 02:04:04;;;;;;;7.47;6.15;;;8.80;99.90;;;;;;5063855;28;20032;-87
2023/12/21 02:06:30;;;;;;;15.02;5.40;;;8.70;99.90;;;;;;5081167;28;20043;-87
2023/12/21 02:08:56;;;;;;;10.13;5.90;;;8.70;99.90;;;;;;5065384;28;20025;-88
2023/12/21 02:11:23;;;;;;;9.93;5.97;;;8.80;99.90;;;;;;5047698;28;20048;-88
2023/12/21 02:13:49;;;;;;;12.35;6.00;;;8.80;99.90;;;;;;5061088;28;20564;-88
2023/12/21 02:16:19;;;;;;;8.77;4.00;;;8.60;99.90;;;;;;5044955;28;20067;-88
2023/12/21 02:18:47;;;;;;;11.88;5.43;;;8.90;99.90;;;;;;5057873;28;20024;-88
2023/12/21 02:21:14;;;;;;;9.00;5.22;;;8.70;99.90;;;;;;5064211;28;20085;-88
2023/12/21 02:23:42;;;;;;;25.90;7.93;;;8.60;99.90;;;;;;5062919;28;20049;-88
2023/12/21 02:26:10;;;;;;;8.73;5.60;;;8.80;99.90;;;;;;5034985;28;20025;-89
2023/12/21 02:28:36;;;;;;;9.23;5.22;;;9.10;99.90;;;;;;5058865;28;20322;-87
2023/12/21 02:31:02;;;;;;;19.45;5.57;;;8.80;99.90;;;;;;5030589;28;20036;-88
2023/12/21 02:33:28;;;;;;;9.02;5.43;;;8.80;99.90;;;;;;5011026;28;20037;-91
2023/12/21 02:35:54;;;;;;;7.95;5.50;;;8.80;99.90;;;;;;5063878;28;20031;-88
2023/12/21 02:38:20;;;;;;;9.02;6.13;;;8.80;99.90;;;;;;5064490;28;20218;-88
2023/12/21 02:40:46;;;;;;;8.38;4.38;;;8.80;99.90;;;;;;5080593;28;20088;-88
2023/12/21 02:43:12;;;;;;;8.73;4.47;;;8.80;99.90;;;;;;5063997;28;20025;-88
2023/12/21 02:45:37;;;;;;;8.45;5.47;;;8.80;99.90;;;;;;5046370;28;20040;-90
2023/12/21 02:48:03;;;;;;;7.00;5.35;;;8.80;99.90;;;;;;5070555;28;20020;-89
2023/12/21 02:50:29;;;;;;;8.30;4.95;;;8.80;99.90;;;;;;5083751;28;20024;-88
2023/12/21 02:52:55;;;;;;;6.25;4.75;;;8.80;99.90;;;;;;5083772;28;20028;-88
2023/12/21 02:55:21;;;;;;;11.88;5.70;;;8.70;99.90;;;;;;5067101;28;20025;-87
2023/12/21 02:57:46;;;;;;;11.32;4.90;;;8.90;99.90;;;;;;5063844;28;20096;-88
2023/12/21 03:00:13;;;;;;;9.48;5.63;;;8.80;99.90;;;;;;5047210;28;20210;-89
2023/12/21 03:02:38;;;;;;;12.40;6.80;;;8.80;99.90;;;;;;5063777;28;20025;-87
2023/12/21 03:05:05;;;;;;;12.18;7.25;;;8.80;99.90;;;;;;5062814;28;20024;-88
2023/12/21 03:07:31;;;;;;;14.27;6.63;;;8.90;99.90;;;;;;5063840;28;20017;-89
2023/12/21 03:09:57;;;;;;;7.60;6.80;;;8.90;99.90;;;;;;5049085;28;20139;-88
2023/12/21 03:12:23;;;;;;;8.55;5.85;;;8.90;99.90;;;;;;5043555;28;20096;-88
2023/12/21 03:14:48;;;;;;;8.95;6.13;;;8.90;99.90;;;;;;5038602;28;20087;-88
2023/12/21 03:17:15;;;;;;;5.90;4.68;;;8.90;99.90;;;;;;5080119;28;20027;-87
2023/12/21 03:19:40;;;;;;;12.98;6.22;;;8.90;99.90;;;;;;5037353;28;20021;-89
2023/12/21 03:22:06;;;;;;;11.77;4.93;;;8.90;99.90;;;;;;5043377;28;20322;-88
2023/12/21 03:24:32;;;;;;;12.57;5.90;;;8.90;99.90;;;;;;5031302;28;20051;-87
2023/12/21 03:26:58;;;;;;;9.77;4.85;;;8.90;99.90;;;;;;5042862;28;20334;-89
2023/12/21 03:29:24;;;;;;;6.25;5.28;;;8.90;99.90;;;;;;5044285;28;20032;-87
2023/12/21 03:31:52;;;;;;;9.88;6.13;;;8.90;99.90;;;;;;5045522;28;20242;-87
2023/12/21 03:34:18;;;;;;;8.30;5.85;;;8.80;99.90;;;;;;5047398;28;20092;-88
2023/12/21 03:36:44;;;;;;;10.77;7.65;;;8.80;99.90;;;;;;5062207;28;20017;-88
2023/12/21 03:39:10;;;;;;;10.68;5.07;;;8.90;99.90;;;;;;5062250;28;20021;-87
2023/12/21 03:41:36;;;;;;;19.58;8.18;;;8.80;99.90;;;;;;5063242;28;20063;-88
2023/12/21 03:44:02;;;;;;;12.90;7.82;;;;;;;;;;5045152;28;20241;-89
2023/12/21 03:46:28;;;;;;;20.75;6.82;;;9.00;99.90;;;;;;5046433;28;20016;-87
2023/12/21 03:48:54;;;;;;;12.52;8.27;;;8.90;99.90;;;;;;5062658;28;20080;-88
2023/12/21 03:51:20;;;;;;;15.75;8.05;;;;;;;;;;5062963;28;20048;-88
2023/12/21 03:53:45;;;;;;;8.35;5.70;;;8.90;99.90;;;;;;5045421;28;20033;-88
2023/12/21 03:56:12;;;;;;;22.08;7.18;;;8.90;99.90;;;;;;5061884;28;20028;-89
2023/12/21 03:58:37;;;;;;;11.80;6.10;;;8.90;99.90;;;;;;5062281;28;20025;-87
2023/12/21 04:01:04;;;;;;;12.48;6.25;;;8.90;99.90;;;;;;5048929;28;20052;-87
2023/12/21 04:03:30;;;;;;;6.28;5.68;;;8.90;99.90;;;;;;5042556;28;20026;-88
2023/12/21 04:05:56;;;;;;;5.38;4.85;;;8.90;99.90;;;;;;5062853;28;20029;-86
2023/12/21 04:08:22;;;;;;;15.27;7.05;;;9.00;99.90;;;;;;5062778;28;20040;-87
2023/12/21 04:10:48;;;;;;;13.52;5.28;;;9.00;99.90;;;;;;5045993;28;20096;-87
2023/12/21 04:13:14;;;;;;;16.77;7.72;;;9.00;99.90;;;;;;5062355;28;20044;-87
2023/12/21 04:15:40;;;;;;;21.23;7.60;;;9.00;99.90;;;;;;5044805;28;20036;-88
2023/12/21 04:18:06;;;;;;;20.13;8.98;;;;;;;;;;5063340;28;20217;-87
2023/12/21 04:20:34;;;;;;;11.68;6.30;;;8.90;99.90;;;;;;5062115;28;20025;-86
2023/12/21 04:22:59;;;;;;;15.73;8.43;;;9.00;99.90;;;;;;5061638;28;20036;-89
2023/12/21 04:25:25;;;;;;;27.63;7.15;;;9.20;99.90;;;;;;5058194;28;20025;-89
2023/12/21 04:27:51;;;;;;;18.60;5.32;;;9.00;99.90;;;;;;5062549;28;20035;-87
2023/12/21 04:30:17;;;;;;;9.77;6.45;;;9.00;99.90;;;;;;5062466;28;20095;-87
2023/12/21 04:32:43;;;;;;;9.88;7.07;;;9.00;99.90;;;;;;5047629;28;20017;-89
2023/12/21 04:35:10;;;;;;;11.27;6.13;;;9.10;99.90;;;;;;5055281;28;20110;-87
2023/12/21 04:37:36;;;;;;;9.18;5.43;;;9.00;99.90;;;;;;5078128;28;20020;-87
2023/12/21 04:40:03;;;;;;;9.38;4.53;;;;;;;;;;5062204;28;20363;-87
2023/12/21 04:42:30;;;;;;;13.85;5.60;;;9.10;99.90;;;;;;5061464;28;20028;-87
2023/12/21 04:44:56;;;;;;;9.05;6.43;;;9.10;99.90;;;;;;5067103;28;20021;-88
2023/12/21 04:47:21;;;;;;;18.48;8.13;;;9.10;99.90;;;;;;5061518;28;20024;-87
2023/12/21 04:49:47;;;;;;;9.27;4.35;;;9.00;99.90;;;;;;5078605;28;20024;-88
2023/12/21 04:52:13;;;;;;;15.80;7.05;;;9.10;99.90;;;;;;5061664;28;20019;-87
2023/12/21 04:54:40;;;;;;;15.27;6.57;;;;;;;;;;5077535;28;20040;-88
2023/12/21 04:57:06;;;;;;;11.13;6.68;;;9.10;99.90;;;;;;5062189;28;20055;-88
2023/12/21 04:59:31;;;;;;;11.98;5.03;;;9.10;99.90;;;;;;5062238;28;20021;-89
2023/12/21 05:01:58;;;;;;;13.10;6.53;;;;;;;;;;5058496;28;20103;-87
2023/12/21 05:04:24;;;;;;;19.52;6.68;;;9.10;99.90;;;;;;5024314;28;20017;-88
2023/12/21 05:06:50;;;;;;;13.55;6.53;;;9.10;99.90;;;;;;5058229;28;20064;-88
2023/12/21 05:09:16;;;;;;;13.43;7.90;;;9.10;99.90;;;;;;5057990;28;20096;-88
2023/12/21 05:11:43;;;;;;;12.63;7.30;;;9.10;99.90;;;;;;5057877;28;20085;-88
2023/12/21 05:14:08;;;;;;;11.50;6.20;;;9.10;99.90;;;;;;5060404;28;20252;-87
2023/12/21 05:16:39;;;;;;;11.32;5.60;;;9.10;99.90;;;;;;5044992;28;20021;-88
2023/12/21 05:19:05;;;;;;;10.52;5.85;;;9.10;99.90;;;;;;5061301;28;20056;-87
2023/12/21 05:21:30;;;;;;;30.33;7.18;;;9.20;99.90;;;;;;5044507;28;20025;-88
2023/12/21 05:23:56;;;;;;;11.90;5.53;;;9.20;99.90;;;;;;5060013;28;20017;-88
2023/12/21 05:26:22;;;;;;;12.65;7.03;;;9.30;99.90;;;;;;5044625;28;20017;-89
2023/12/21 05:28:48;;;;;;;11.13;7.25;;;9.30;99.90;;;;;;5045069;28;20017;-88
2023/12/21 05:31:22;;;;;;;5.85;4.85;;;9.30;99.90;;;;;;5043067;28;20063;-87
2023/12/21 05:33:48;;;;;;;14.25;6.28;;;9.30;99.90;;;;;;5044217;28;20040;-87
2023/12/21 05:36:24;;;;;;;24.25;7.22;;;9.40;99.90;;;;;;5061548;28;20286;-87
2023/12/21 05:38:53;;;;;;;11.65;6.65;;;9.30;99.90;;;;;;5061458;28;20017;-89
2023/12/21 05:41:19;;;;;;;19.65;8.60;;;9.30;99.90;;;;;;5061685;28;20021;-88
2023/12/21 05:43:45;;;;;;;18.70;6.55;;;9.40;99.90;;;;;;5060365;28;20041;-88
2023/12/21 05:46:11;;;;;;;13.05;7.03;;;9.40;99.90;;;;;;5078190;28;20045;-87
2023/12/21 05:48:37;;;;;;;11.38;6.35;;;9.40;99.90;;;;;;5061526;28;20040;-88
2023/12/21 05:51:04;;;;;;;15.25;8.05;;;9.50;99.90;;;;;;5041257;28;20018;-89
2023/12/21 05:53:35;;;;;;;14.65;6.70;;;9.40;99.90;;;;;;5042138;28;20353;-89
2023/12/21 05:56:02;;;;;;;13.48;6.50;;;9.50;99.90;;;;;;5066422;28;20321;-88
2023/12/21 05:58:28;;;;;;;12.63;5.97;;;9.30;99.90;;;;;;5064326;28;20028;-89
2023/12/21 06:00:54;;;;;;;14.70;6.43;;;9.50;99.90;;;;;;5064523;28;20024;-88
2023/12/21 06:03:23;;;;;;;11.68;6.22;;;9.60;99.90;;;;;;5050505;28;20027;-88
2023/12/21 06:05:50;;;;;;;7.43;5.28;;;9.70;99.90;;;;;;5068996;28;20040;-87
2023/12/21 06:08:15;;;;;;;7.05;5.85;;;9.50;99.90;;;;;;5047558;28;20044;-87
2023/12/21 06:10:41;;;;;;;11.50;6.13;;;9.50;99.90;;;;;;5064011;28;20005;-89
2023/12/21 06:13:07;;;;;;;9.50;4.82;;;9.50;99.90;;;;;;5034614;28;20088;-89
2023/12/21 06:15:33;;;;;;;17.75;5.82;;;9.50;99.90;;;;;;5041991;28;20221;-88
2023/12/21 06:17:59;;;;;;;7.15;3.92;;;9.40;99.90;;;;;;5054907;28;20023;-87
2023/12/21 06:20:26;;;;;;;9.82;5.72;;;9.40;99.90;;;;;;5076404;28;20067;-86
2023/12/21 06:22:51;;;;;;;8.93;5.97;;;9.50;99.90;;;;;;5040702;28;20020;-86
2023/12/21 06:25:17;;;;;;;10.25;5.45;;;9.50;99.90;;;;;;5051256;28;20021;-89
2023/12/21 06:27:44;;;;;;;12.02;5.43;;;;;;;;;;5041494;28;20021;-89
2023/12/21 06:30:10;;;;;;;8.35;4.47;;;9.40;99.90;;;;;;5045944;28;20017;-89
2023/12/21 06:32:35;;;;;;;10.70;6.22;;;9.50;99.90;;;;;;5078165;28;20028;-89
2023/12/21 06:35:01;;;;;;;12.18;6.03;;;9.40;99.90;;;;;;5073344;28;20037;-88
2023/12/21 06:37:28;;;;;;;15.77;5.63;;;9.50;99.90;;;;;;5051348;28;20040;-88
2023/12/21 06:39:54;;;;;;;15.23;5.45;;;9.50;99.90;;;;;;5055282;28;20056;-89
2023/12/21 06:42:20;;;;;;;10.07;4.57;;;9.50;99.90;;;;;;5044686;28;20024;-88
2023/12/21 06:44:46;;;;;;;11.05;4.70;;;9.60;99.90;;;;;;5063139;28;20203;-90
2023/12/21 06:47:11;;;;;;;5.38;4.63;;;10.00;99.90;;;;;;5047120;28;20021;-89
2023/12/21 06:49:38;;;;;;;6.50;4.65;;;9.60;99.90;;;;;;5063509;28;20096;-89
2023/12/21 06:52:03;;;;;;;8.65;4.28;;;9.60;99.90;;;;;;5062121;28;20249;-90
2023/12/21 06:54:33;;;;;;;8.50;6.68;;;9.60;99.90;;;;;;5058530;28;20104;-90
2023/12/21 06:56:58;;;;;;;8.75;4.88;;;9.60;99.90;;;;;;5060935;28;20017;-90
2023/12/21 06:59:27;;;;;;;7.60;4.47;;;9.70;99.90;;;;;;5042418;28;20028;-90
2023/12/21 07:01:52;;;;;;;9.80;5.07;;;9.70;99.90;;;;;;5048061;28;20058;-89
2023/12/21 07:04:19;;;;;;;12.55;4.72;;;9.70;99.90;;;;;;5042658;28;20310;-89
2023/12/21 07:06:45;;;;;;;8.38;4.85;;;9.70;99.90;;;;;;5046614;28;20033;-90
2023/12/21 07:09:11;;;;;;;6.03;4.40;;;9.80;99.90;;;;;;5050590;28;20095;-89
2023/12/21 07:11:36;;;;;;;9.98;4.78;;;9.80;99.90;;;;;;5042121;28;20032;-88
2023/12/21 07:14:02;;;;;;;15.27;6.35;;;9.70;99.90;;;;;;5048973;28;20314;-89
2023/12/21 07:16:29;;;;;;;10.52;3.95;;;9.70;99.90;;;;;;5054299;28;20010;-88
2023/12/21 07:18:54;;;;;;;9.68;3.80;;;9.70;99.90;;;;;;5061424;28;20214;-90
2023/12/21 07:21:20;;;;;;;8.38;4.28;;;9.70;99.90;;;;;;5041719;28;20021;-89
2023/12/21 07:23:46;;;;;;;11.10;4.85;;;9.70;99.90;;;;;;5044292;28;20028;-89
2023/12/21 07:26:12;;;;;;;12.98;4.70;;;9.80;99.90;;;;;;5034149;28;20025;-89
2023/12/21 07:28:40;;;;;;;9.13;3.72;;;9.70;99.90;;;;;;5058506;28;20045;-89
2023/12/21 07:31:05;;;;;;;6.80;4.07;;;9.70;99.90;;;;;;5043000;28;20026;-88
2023/12/21 07:33:31;;;;;;;6.75;2.95;;;9.70;99.90;;;;;;5045352;28;20052;-91
2023/12/21 07:35:57;;;;;;;8.75;5.55;;;9.70;99.90;;;;;;5044153;28;20021;-90
2023/12/21 07:38:23;;;;;;;11.77;3.58;;;9.80;99.90;;;;;;5055804;28;20061;-88
2023/12/21 07:40:51;;;;;;;16.23;5.38;;;9.80;99.90;;;;;;5045920;28;20016;-88
2023/12/21 07:43:17;;;;;;;14.80;3.97;;;9.80;99.90;;;;;;5061571;28;20328;-88
2023/12/21 07:45:43;;;;;;;10.57;3.10;;;9.90;99.90;;;;;;5018384;28;20033;-89
2023/12/21 07:48:09;;;;;;;7.55;4.32;;;9.90;99.90;;;;;;5061179;28;20102;-89
2023/12/21 07:50:35;;;;;;;16.48;3.88;;;10.00;99.90;;;;;;5043577;28;20092;-90
2023/12/21 07:53:01;;;;;;;9.57;5.15;;;10.00;99.90;;;;;;5070818;28;20021;-89
2023/12/21 07:55:27;;;;;;;5.38;3.15;;;10.20;99.90;;;;;;5055699;28;20017;-88
2023/12/21 07:57:53;;;;;;;13.15;5.07;;;10.00;99.90;;;;;;5059520;28;20044;-88
2023/12/21 08:00:19;;;;;;;10.63;6.90;;;10.20;99.90;;;;;;5061102;28;20238;-90
2023/12/21 08:02:45;;;;;;;8.05;5.70;;;10.10;99.90;;;;;;5027898;28;20001;-89
2023/12/21 08:05:14;;;;;;;9.55;6.20;;;10.10;99.90;;;;;;5055691;28;20021;-88
2023/12/21 08:07:40;;;;;;;17.37;7.57;;;10.00;99.90;;;;;;5057587;28;20314;-88
2023/12/21 08:10:07;;;;;;;26.20;20.73;;;9.90;99.90;;;;;;5041082;28;20029;-88
2023/12/21 08:12:35;;;;;;;14.25;6.60;;;10.00;99.90;;;;;;5041100;28;20025;-89
2023/12/21 08:15:01;;;;;;;13.60;9.52;;;9.80;99.90;;;;;;5051629;28;20053;-89
2023/12/21 08:17:27;;;;;;;16.60;10.35;;;9.80;99.90;;;;;;5041493;28;20016;-91
2023/12/21 08:19:53;;;;;;;5.13;4.07;;;9.90;99.90;;;;;;5042663;28;20318;-92
2023/12/21 08:22:19;;;;;;;9.07;3.65;;;;;;;;;;5062126;28;20017;-91
2023/12/21 08:24:45;;;;;;;10.23;4.15;;;9.90;99.90;;;;;;5044917;28;20194;-91
2023/12/21 08:27:13;;;;;;;9.23;7.43;;;9.80;99.90;;;;;;5056131;28;20025;-90
2023/12/21 08:29:39;;;;;;;11.93;3.95;;;9.80;99.90;;;;;;5045281;28;20092;-90
2023/12/21 08:32:05;;;;;;;10.15;5.22;;;9.80;99.90;;;;;;5062194;28;20231;-90
2023/12/21 08:34:31;;;;;;;3.33;2.90;;;9.80;99.90;;;;;;5044518;28;20025;-90
2023/12/21 08:36:58;;;;;;;15.43;10.90;;;9.80;99.90;;;;;;5066802;28;20240;-91
2023/12/21 08:39:24;;;;;;;8.23;3.22;;;9.70;99.90;;;;;;5065049;28;20268;-92
2023/12/21 08:41:50;;;;;;;8.63;7.78;;;9.80;99.90;;;;;;5082196;28;20027;-89
2023/12/21 08:44:17;;;;;;;14.90;8.13;;;9.80;99.90;;;;;;5072363;28;20082;-90
2023/12/21 08:46:44;;;;;;;13.27;9.57;;;9.90;99.90;;;;;;5041402;28;20041;-92
2023/12/21 08:49:15;;;;;;;27.88;20.17;;;9.70;99.90;;;;;;5028441;28;20021;-90
2023/12/21 08:51:41;;;;;;;15.80;10.23;;;;;;;;;;5046289;28;20025;-91
2023/12/21 08:54:07;;;;;;;3.67;2.70;;;9.70;99.90;;;;;;5056501;28;20029;-91
2023/12/21 08:56:33;;;;;;;3.42;3.13;;;9.80;99.90;;;;;;5061722;28;20172;-90
2023/12/21 08:58:59;;;;;;;4.43;4.10;;;;;;;;;;5032332;28;20044;-91
2023/12/21 09:01:25;;;;;;;6.35;3.88;;;9.70;99.90;;;;;;5042152;28;20037;-90
2023/12/21 09:03:51;;;;;;;5.20;3.97;;;9.70;99.90;;;;;;5024634;28;20136;-90
2023/12/21 09:06:17;;;;;;;9.00;3.72;;;9.80;99.90;;;;;;5059648;28;20322;-89
2023/12/21 09:08:43;;;;;;;13.68;3.60;;;9.80;99.90;;;;;;5045663;28;20063;-90
2023/12/21 09:11:09;;;;;;;11.32;3.72;;;9.80;99.90;;;;;;5061873;28;20017;-90
2023/12/21 09:13:35;;;;;;;5.78;2.47;;;9.80;99.90;;;;;;5043137;28;20135;-90
2023/12/21 09:16:01;;;;;;;10.75;3.08;;;;;;;;;;5058569;28;20029;-89
2023/12/21 09:18:27;;;;;;;7.53;3.25;;;9.80;99.90;;;;;;5041960;28;20020;-89
2023/12/21 09:20:52;;;;;;;5.10;3.97;;;9.90;99.90;;;;;;5061360;28;20021;-90
2023/12/21 09:23:19;;;;;;;6.55;2.60;;;;;;;;;;5044639;28;20080;-89
2023/12/21 09:25:45;;;;;;;2.63;2.42;;;9.80;99.90;;;;;;5044302;28;20088;-92
2023/12/21 09:28:10;;;;;;;3.33;2.97;;;9.80;99.90;;;;;;5061572;28;20021;-90
2023/12/21 09:30:37;;;;;;;4.15;3.55;;;;;;;;;;5064161;28;20018;-90
2023/12/21 09:33:04;;;;;;;7.28;4.68;;;9.90;99.90;;;;;;5061394;28;20025;-91
2023/12/21 09:35:30;;;;;;;6.90;6.18;;;;;;;;;;5030037;28;20028;-88
2023/12/21 09:37:56;;;;;;;5.07;4.65;;;;;;;;;;5063543;28;20017;-90
2023/12/21 09:40:26;;;;;;;6.53;5.20;;;;;;;;;;5057266;28;20025;-90
2023/12/21 09:42:55;;;;;;;4.72;4.32;;;10.00;99.90;;;;;;5040724;28;20091;-90
2023/12/21 09:45:23;;;;;;;6.03;5.43;;;10.00;99.90;;;;;;5061199;28;20262;-91
2023/12/21 09:47:49;;;;;;;7.68;5.85;;;10.10;99.90;;;;;;5050442;28;20459;-91
2023/12/21 09:50:16;;;;;;;17.63;15.65;;;10.00;99.90;;;;;;5044218;28;20099;-89
2023/12/21 09:52:44;;;;;;;8.55;5.40;;;10.00;99.90;;;;;;5044634;28;20018;-90
2023/12/21 09:55:11;;;;;;;5.30;4.22;;;10.00;99.90;;;;;;5054584;28;20074;-90
2023/12/21 09:57:38;;;;;;;7.75;5.75;;;10.00;99.90;;;;;;5020436;28;20075;-89
2023/12/21 10:00:04;;;;;;;8.90;4.95;;;;;;;;;;5062295;28;20013;-89
2023/12/21 10:02:37;;;;;;;3.30;2.78;;;;;;;;;;5060383;28;20064;-91
2023/12/21 10:05:04;;;;;;;5.57;4.65;;;10.10;99.90;;;;;;5061171;28;20029;-90
2023/12/21 10:07:30;;;;;;;4.20;3.78;;;10.30;99.90;;;;;;5049721;28;20017;-89
2023/12/21 10:09:58;;;;;;;6.05;3.15;;;;;;;;;;5053648;28;20016;-89
2023/12/21 10:12:24;;;;;;;2.90;2.70;;;10.10;99.90;;;;;;5062816;28;20429;-89
2023/12/21 10:14:57;;;;;;;4.57;3.28;;;10.40;99.90;;;;;;5045046;28;20041;-89
2023/12/21 10:17:24;;;;;;;5.03;4.38;;;;;;;;;;5064555;28;20025;-91
2023/12/21 10:19:50;;;;;;;4.95;3.72;;;;;;;;;;5049707;28;20131;-90
2023/12/21 10:22:18;;;;;;;3.03;2.53;;;10.50;99.90;;;;;;5043718;28;20010;-89
2023/12/21 10:24:49;;;;;;;8.35;2.85;;;10.40;99.90;;;;;;5052194;28;20026;-90
2023/12/21 10:27:18;;;;;;;2.13;2.03;;;;;;;;;;5045556;28;20059;-89
2023/12/21 10:29:55;;;;;;;3.08;2.20;;;10.70;99.90;;;;;;5030933;28;20021;-90
2023/12/21 10:32:21;;;;;;;3.00;1.60;;;;;;;;;;5067687;28;20021;-90
2023/12/21 10:34:47;;;;;;;4.32;2.10;;;;;;;;;;5056794;28;20037;-91
2023/12/21 10:37:17;;;;;;;1.95;1.63;;;10.90;99.90;;;;;;5040531;28;20070;-91
2023/12/21 10:39:43;;;;;;;;;;;12.00;99.90;;;;;;5062400;28;20099;-91
2023/12/21 10:42:10;;;;;;;4.10;2.13;;;;;;;;;;5049023;28;20353;-91
2023/12/21 10:44:36;;;;;;;2.10;2.00;;;10.80;99.90;;;;;;5061159;28;20048;-89
2023/12/21 10:47:02;;;;;;;5.57;1.65;;;10.90;99.90;;;;;;5048825;28;20025;-90
2023/12/21 10:49:28;;;;;;;2.25;2.15;;;11.00;99.90;;;;;;5042179;28;20090;-92
2023/12/21 10:51:55;;;;;;;3.58;2.10;;;10.90;99.90;;;;;;5038694;28;20025;-90
2023/12/21 10:54:25;;;;;;;3.42;1.83;;;10.70;99.90;;;;;;5087046;28;20374;-91
2023/12/21 10:56:52;;;;;;;3.40;3.10;;;11.00;99.90;;;;;;5061294;28;20341;-90
2023/12/21 10:59:20;;;;;;;1.15;1.15;;;11.00;99.90;;;;;;5058069;28;20016;-91
2023/12/21 11:01:46;;;;;;;9.93;2.28;;;11.10;99.90;;;;;;5067428;28;20310;-90
2023/12/21 11:04:13;;;;;;;4.88;1.23;;;11.10;99.90;;;;;;5043091;28;20013;-89
2023/12/21 11:06:43;;;;;;;4.22;2.05;;;11.10;99.90;;;;;;5064564;28;20066;-91
2023/12/21 11:09:11;;;;;;;9.05;3.22;;;11.00;99.90;;;;;;5027783;28;20028;-90
2023/12/21 11:11:38;;;;;;;5.78;0.77;;;11.10;99.90;;;;;;5046125;28;20021;-90
2023/12/21 11:14:04;;;;;;;1.35;1.15;;;11.10;99.90;;;;;;5044176;28;20117;-91
2023/12/21 11:16:36;;;;;;;1.00;0.95;;;11.10;99.90;;;;;;5043705;28;20043;-92
2023/12/21 11:19:05;;;;;;;3.13;1.48;;;11.10;99.90;;;;;;5050914;28;20025;-91
2023/12/21 11:21:34;;;;;;;1.55;1.42;;;11.10;99.90;;;;;;5040894;28;20020;-90
2023/12/21 11:24:00;;;;;;;4.65;1.38;;;11.20;99.90;;;;;;5074256;28;20021;-94
2023/12/21 11:26:28;;;;;;;5.38;1.73;;;;;;;;;;5032273;28;20016;-90
2023/12/21 11:29:05;;;;;;;1.88;0.98;;;11.20;99.90;;;;;;5055459;28;20087;-89
2023/12/21 11:31:41;;;;;;;1.45;0.68;;;11.20;99.90;;;;;;5060950;28;20502;-89
2023/12/21 11:34:11;;;;;;;6.22;1.38;;;11.10;99.90;;;;;;5061546;28;20033;-90
2023/12/21 11:36:37;;;;;;;5.00;1.17;;;11.10;99.90;;;;;;5063065;28;20032;-89
2023/12/21 11:39:10;;;;;;;0.68;0.68;;;11.10;99.90;;;;;;5040761;28;20009;-89
2023/12/21 11:41:47;;;;;;;3.33;1.35;;;11.10;99.90;;;;;;5059190;28;20017;-89
2023/12/21 11:44:12;;;;;;;1.70;1.33;;;11.20;99.90;;;;;;5078852;28;20314;-89
2023/12/21 11:46:40;;;;;;;5.50;1.27;;;11.30;99.90;;;;;;5061174;28;20050;-91
2023/12/21 11:49:07;;;;;;;5.53;1.63;;;11.30;99.90;;;;;;5053956;28;20017;-89
2023/12/21 11:51:45;;;;;;;1.40;0.57;;;11.40;99.90;;;;;;5060268;28;20043;-89
2023/12/21 11:54:11;;;;;;;2.10;0.93;;;11.30;99.90;;;;;;5053915;28;20068;-90
2023/12/21 11:56:39;;;;;;;2.22;0.77;;;;;;;;;;5043904;28;20017;-90
2023/12/21 11:59:06;;;;;;;4.75;0.98;;;11.30;99.90;;;;;;5057540;28;20167;-92
2023/12/21 12:01:33;;;;;;;1.60;0.93;;;11.40;99.90;;;;;;5049938;28;20025;-91
2023/12/21 12:03:59;;;;;;;1.00;1.00;;;11.40;99.90;;;;;;5034369;28;20028;-90
2023/12/21 12:06:28;;;;;;;3.83;0.70;;;11.50;99.90;;;;;;5032732;28;20029;-92
2023/12/21 12:08:55;;;;;;;6.20;0.90;;;11.60;99.90;;;;;;5042250;28;20044;-92
2023/12/21 12:11:21;;;;;;;5.15;1.30;;;11.60;99.90;;;;;;5046701;28;20021;-91
2023/12/21 12:13:47;;;;;;;3.13;2.85;;;11.70;99.90;;;;;;5043784;28;20025;-89
2023/12/21 12:16:17;;;;;;;0.57;0.57;;;11.80;99.90;;;;;;5049115;28;20067;-89
2023/12/21 12:18:43;;;;;;;1.38;1.27;;;;;;;;;;5056749;28;20321;-92
2023/12/21 12:21:10;;;;;;;5.05;1.98;;;11.90;99.90;;;;;;5047074;28;20084;-90
2023/12/21 12:23:36;;;;;;;4.35;1.40;;;12.20;99.90;;;;;;5057354;28;20021;-91
2023/12/21 12:26:02;;;;;;;2.00;0.68;;;12.10;99.90;;;;;;5025272;28;20025;-91
2023/12/21 12:28:28;;;;;;;1.05;0.85;;;12.10;99.90;;;;;;5072381;28;20017;-90
2023/12/21 12:30:54;;;;;;;1.85;0.82;;;12.00;99.90;;;;;;5044835;28;20089;-91
2023/12/21 12:33:20;;;;;;;2.58;0.70;;;11.90;99.90;;;;;;5047782;28;20280;-90
2023/12/21 12:35:48;;;;;;;0.65;0.65;;;11.80;99.90;;;;;;5042480;28;20061;-91
2023/12/21 12:38:16;;;;;;;3.33;1.45;;;11.60;99.90;;;;;;5061962;28;20021;-90
2023/12/21 12:40:42;;;;;;;2.25;1.65;;;11.50;99.90;;;;;;5043435;28;20017;-92
2023/12/21 12:43:08;;;;;;;1.73;1.60;;;11.40;99.90;;;;;;5041106;28;20140;-93
2023/12/21 12:45:34;;;;;;;3.15;0.85;;;11.30;99.90;;;;;;5041743;28;20040;-93
2023/12/21 12:48:02;;;;;;;6.13;2.17;;;11.20;99.90;;;;;;5068150;28;20298;-93
2023/12/21 12:50:30;;;;;;;4.75;1.08;;;11.20;99.90;;;;;;5055519;28;20022;-92
2023/12/21 12:52:56;;;;;;;3.95;2.35;;;11.20;99.90;;;;;;5041813;28;20210;-91
2023/12/21 12:55:23;;;;;;;4.13;3.35;;;11.30;99.90;;;;;;5044434;28;20055;-91